createdAt,value
2022-09-15T00:02:32.106Z,67.26
2022-09-15T00:05:34.837Z,67.37
2022-09-15T00:08:38.925Z,67.65
2022-09-15T00:11:41.508Z,67.17
2022-09-15T00:14:44.509Z,67.31
2022-09-15T00:17:49.708Z,67.16
2022-09-15T00:20:52.250Z,67.05
2022-09-15T00:23:56.237Z,67.15
2022-09-15T00:26:58.751Z,67.00
2022-09-15T00:30:01.309Z,67.02
2022-09-15T00:33:03.878Z,67.06
2022-09-15T00:36:07.416Z,67.00
2022-09-15T00:39:12.212Z,67.17
2022-09-15T00:42:15.665Z,67.03
2022-09-15T00:45:18.442Z,67.15
2022-09-15T00:48:22.461Z,66.85
2022-09-15T00:51:33.884Z,67.31
2022-09-15T00:54:40.245Z,67.13
2022-09-15T00:57:45.041Z,66.77
2022-09-15T01:00:50.159Z,67.25
2022-09-15T01:03:52.751Z,66.97
2022-09-15T01:06:57.460Z,66.74
2022-09-15T01:10:02.371Z,67.01
2022-09-15T01:13:06.932Z,66.98
2022-09-15T01:16:16.239Z,67.27
2022-09-15T01:19:32.272Z,67.37
2022-09-15T01:22:37.785Z,67.25
2022-09-15T01:25:59.658Z,67.25
2022-09-15T01:29:21.823Z,67.04
2022-09-15T01:32:43.897Z,67.50
2022-09-15T01:35:54.221Z,67.59
2022-09-15T01:39:00.865Z,67.52
2022-09-15T01:42:04.823Z,68.17
2022-09-15T01:45:11.296Z,68.16
2022-09-15T01:48:13.933Z,68.06
2022-09-15T01:51:16.538Z,68.08
2022-09-15T01:54:20.458Z,67.87
2022-09-15T01:57:23.005Z,68.09
2022-09-15T02:00:27.019Z,68.37
2022-09-15T02:03:32.031Z,68.41
2022-09-15T02:06:39.701Z,68.42
2022-09-15T02:09:45.194Z,68.79
2022-09-15T02:12:50.701Z,68.82
2022-09-15T02:15:57.269Z,68.82
2022-09-15T02:19:10.126Z,68.89
2022-09-15T02:22:14.484Z,68.68
2022-09-15T02:25:18.736Z,68.95
2022-09-15T02:28:23.904Z,69.14
2022-09-15T02:31:27.919Z,69.03
2022-09-15T02:34:32.637Z,69.16
2022-09-15T02:37:35.569Z,69.03
2022-09-15T02:40:38.314Z,68.94
2022-09-15T02:43:45.667Z,68.35
2022-09-15T02:46:49.673Z,68.84
2022-09-15T02:49:52.821Z,68.77
2022-09-15T02:52:55.483Z,68.69
2022-09-15T02:55:58.305Z,68.33
2022-09-15T02:59:00.893Z,68.46
2022-09-15T03:02:05.589Z,68.40
2022-09-15T03:05:09.583Z,68.36
2022-09-15T03:08:12.151Z,68.46
2022-09-15T03:11:15.448Z,68.27
2022-09-15T03:14:18.047Z,68.02
2022-09-15T03:17:22.036Z,67.75
2022-09-15T03:20:26.005Z,68.01
2022-09-15T03:23:28.725Z,67.78
2022-09-15T03:26:31.357Z,67.73
2022-09-15T03:29:33.949Z,67.83
2022-09-15T03:32:37.964Z,67.98
2022-09-15T03:35:40.874Z,67.80
2022-09-15T03:38:43.431Z,67.95
2022-09-15T03:41:46.038Z,67.93
2022-09-15T03:44:48.661Z,67.68
2022-09-15T03:47:52.682Z,67.72
2022-09-15T03:50:55.408Z,67.61
2022-09-15T03:53:57.969Z,67.37
2022-09-15T03:57:00.564Z,67.54
2022-09-15T04:00:03.881Z,67.38
2022-09-15T04:03:07.921Z,67.44
2022-09-15T04:06:10.548Z,67.15
2022-09-15T04:09:13.559Z,67.14
2022-09-15T04:12:16.140Z,66.95
2022-09-15T04:15:18.973Z,66.58
2022-09-15T04:18:22.970Z,66.64
2022-09-15T04:21:26.672Z,66.48
2022-09-15T04:24:29.318Z,66.22
2022-09-15T04:27:34.260Z,66.04
2022-09-15T04:30:37.210Z,66.23
2022-09-15T04:33:41.788Z,65.77
2022-09-15T04:36:44.636Z,66.11
2022-09-15T04:39:47.828Z,66.19
2022-09-15T04:42:50.484Z,66.33
2022-09-15T04:45:53.083Z,66.29
2022-09-15T04:48:57.237Z,66.12
2022-09-15T04:51:59.801Z,65.94
2022-09-15T04:55:02.400Z,65.97
2022-09-15T04:58:05.022Z,65.90
2022-09-15T05:01:11.794Z,66.21
2022-09-15T05:04:15.839Z,66.14
2022-09-15T05:07:18.466Z,66.19
2022-09-15T05:10:21.065Z,66.48
2022-09-15T05:13:23.595Z,66.23
2022-09-15T05:16:27.708Z,66.25
2022-09-15T05:19:32.019Z,66.39
2022-09-15T05:22:37.256Z,66.58
2022-09-15T05:25:43.649Z,66.53
2022-09-15T05:28:46.204Z,66.87
2022-09-15T05:31:48.955Z,66.73
2022-09-15T05:34:53.004Z,66.66
2022-09-15T05:37:55.649Z,66.47
2022-09-15T05:41:03.330Z,66.59
2022-09-15T05:44:06.404Z,66.19
2022-09-15T05:47:08.970Z,66.58
2022-09-15T05:50:12.939Z,66.59
2022-09-15T05:53:15.567Z,66.67
2022-09-15T05:56:18.515Z,66.92
2022-09-15T05:59:21.112Z,66.76
2022-09-15T06:02:23.783Z,66.72
2022-09-15T06:05:27.993Z,66.72
2022-09-15T06:08:33.995Z,66.67
2022-09-15T06:11:36.674Z,66.61
2022-09-15T06:14:39.299Z,66.50
2022-09-15T06:17:41.871Z,66.49
2022-09-15T06:20:45.896Z,66.43
2022-09-15T06:23:53.398Z,66.42
2022-09-15T06:26:56.002Z,66.00
2022-09-15T06:29:58.607Z,66.04
2022-09-15T06:33:01.218Z,65.67
2022-09-15T06:36:05.584Z,65.73
2022-09-15T06:39:08.461Z,65.46
2022-09-15T06:42:13.800Z,65.27
2022-09-15T06:45:16.933Z,65.39
2022-09-15T06:48:24.964Z,65.54
2022-09-15T06:51:35.206Z,65.56
2022-09-15T06:54:37.831Z,65.41
2022-09-15T06:57:40.416Z,65.08
2022-09-15T07:00:43.094Z,64.69
2022-09-15T07:03:45.822Z,64.70
2022-09-15T07:06:50.360Z,64.54
2022-09-15T07:09:53.095Z,64.34
2022-09-15T07:12:55.781Z,65.20
2022-09-15T07:15:59.078Z,65.15
2022-09-15T07:19:03.611Z,65.43
2022-09-15T07:22:07.701Z,65.83
2022-09-15T07:25:10.795Z,66.07
2022-09-15T07:28:13.510Z,66.10
2022-09-15T07:31:17.455Z,66.10
2022-09-15T07:34:20.315Z,66.07
2022-09-15T07:37:24.433Z,66.30
2022-09-15T07:40:27.206Z,66.77
2022-09-15T07:43:29.972Z,66.74
2022-09-15T07:46:33.097Z,66.45
2022-09-15T07:49:35.873Z,65.63
2022-09-15T07:52:40.236Z,64.77
2022-09-15T07:55:43.052Z,62.93
2022-09-15T07:58:45.716Z,60.99
2022-09-15T08:01:48.434Z,61.26
2022-09-15T08:04:51.079Z,60.79
2022-09-15T08:07:55.194Z,60.16
2022-09-15T08:10:58.020Z,60.64
2022-09-15T08:14:01.626Z,60.90
2022-09-15T08:17:09.385Z,61.11
2022-09-15T08:20:13.998Z,61.45
2022-09-15T08:23:17.941Z,60.88
2022-09-15T08:26:20.488Z,60.82
2022-09-15T08:29:23.081Z,60.33
2022-09-15T08:32:25.726Z,60.13
2022-09-15T08:35:28.307Z,60.19
2022-09-15T08:38:32.284Z,60.34
2022-09-15T08:41:36.501Z,60.55
2022-09-15T08:44:42.837Z,60.92
2022-09-15T08:47:46.564Z,60.46
2022-09-15T08:50:49.943Z,60.26
2022-09-15T08:53:55.405Z,60.10
2022-09-15T08:56:58.313Z,59.94
2022-09-15T09:00:00.835Z,59.96
2022-09-15T09:03:26.727Z,59.46
2022-09-15T09:06:32.033Z,59.33
2022-09-15T09:09:40.902Z,59.69
2022-09-15T09:12:50.641Z,59.47
2022-09-15T09:16:03.852Z,59.55
2022-09-15T09:19:16.314Z,59.06
2022-09-15T09:22:21.687Z,58.93
2022-09-15T09:25:27.943Z,58.91
2022-09-15T09:28:31.990Z,58.02
2022-09-15T09:31:34.526Z,56.59
2022-09-15T09:34:39.180Z,55.90
2022-09-15T09:37:41.684Z,54.85
2022-09-15T09:40:45.661Z,54.44
2022-09-15T09:43:49.065Z,53.71
2022-09-15T09:46:51.794Z,52.75
2022-09-15T09:49:54.305Z,52.03
2022-09-15T09:52:56.845Z,51.32
2022-09-15T09:56:19.253Z,50.06
2022-09-15T09:59:33.379Z,49.77
2022-09-15T10:02:38.582Z,50.11
2022-09-15T10:05:41.177Z,49.26
2022-09-15T10:08:54.253Z,49.02
2022-09-15T10:11:59.635Z,49.14
2022-09-15T10:15:03.291Z,48.38
2022-09-15T10:18:06.361Z,47.75
2022-09-15T10:21:09.355Z,47.92
2022-09-15T10:24:34.252Z,46.07
2022-09-15T10:27:38.359Z,46.09
2022-09-15T10:30:41.058Z,46.52
2022-09-15T10:33:44.939Z,45.39
2022-09-15T10:36:47.560Z,45.08
2022-09-15T10:39:53.911Z,44.83
2022-09-15T10:43:00.327Z,45.05
2022-09-15T10:46:05.146Z,44.85
2022-09-15T10:49:16.159Z,44.77
2022-09-15T10:52:22.706Z,44.67
2022-09-15T10:55:48.855Z,44.70
2022-09-15T10:59:10.297Z,44.58
2022-09-15T11:02:52.135Z,44.32
2022-09-15T11:06:02.443Z,44.97
2022-09-15T11:09:11.773Z,44.96
2022-09-15T11:12:29.005Z,44.81
2022-09-15T11:15:37.591Z,44.33
2022-09-15T11:18:50.544Z,45.60
2022-09-15T11:21:53.616Z,45.54
2022-09-15T11:24:57.484Z,45.18
2022-09-15T11:28:02.515Z,45.48
2022-09-15T11:31:08.280Z,45.74
2022-09-15T11:34:15.014Z,45.88
2022-09-15T11:37:18.871Z,45.98
2022-09-15T11:40:22.621Z,46.21
2022-09-15T11:43:28.930Z,46.39
2022-09-15T11:46:43.316Z,46.88
2022-09-15T11:49:47.120Z,47.17
2022-09-15T11:52:53.128Z,47.38
2022-09-15T11:55:59.639Z,47.18
2022-09-15T11:59:05.719Z,47.38
2022-09-15T12:02:17.192Z,47.30
2022-09-15T12:05:22.132Z,47.81
2022-09-15T12:08:28.608Z,47.84
2022-09-15T12:11:32.829Z,47.91
2022-09-15T12:14:36.222Z,48.08
2022-09-15T12:17:42.989Z,47.80
2022-09-15T12:20:49.840Z,47.70
2022-09-15T12:23:55.566Z,47.22
2022-09-15T12:27:00.568Z,47.08
2022-09-15T12:30:04.907Z,46.80
2022-09-15T12:33:41.098Z,46.84
2022-09-15T12:36:45.601Z,47.29
2022-09-15T12:39:48.521Z,47.57
2022-09-15T12:42:51.080Z,47.51
2022-09-15T12:45:55.289Z,47.80
2022-09-15T12:49:03.032Z,47.88
2022-09-15T12:52:07.784Z,48.07
2022-09-15T12:55:19.069Z,47.86
2022-09-15T12:58:22.831Z,48.33
2022-09-15T13:01:33.362Z,48.23
2022-09-15T13:04:46.629Z,48.68
2022-09-15T13:08:00.212Z,49.11
2022-09-15T13:11:03.668Z,49.31
2022-09-15T13:14:14.539Z,49.49
2022-09-15T13:17:18.295Z,49.84
2022-09-15T13:20:23.131Z,49.94
2022-09-15T13:23:28.100Z,49.87
2022-09-15T13:26:30.699Z,49.91
2022-09-15T13:29:33.308Z,49.59
2022-09-15T13:32:40.894Z,49.70
2022-09-15T13:35:50.728Z,49.59
2022-09-15T13:38:59.365Z,49.10
2022-09-15T13:42:31.289Z,48.32
2022-09-15T13:45:43.886Z,48.42
2022-09-15T13:48:51.457Z,47.41
2022-09-15T13:51:59.520Z,47.63
2022-09-15T13:55:21.418Z,48.12
2022-09-15T14:01:47.657Z,48.38
2022-09-15T14:04:52.805Z,48.91
2022-09-15T14:08:00.629Z,49.15
2022-09-15T14:11:08.275Z,49.19
2022-09-15T14:14:21.795Z,49.85
2022-09-15T14:17:25.546Z,50.73
2022-09-15T14:20:31.039Z,52.11
2022-09-15T14:23:33.638Z,53.41
2022-09-15T14:26:37.707Z,53.29
2022-09-15T14:29:40.531Z,53.58
2022-09-15T14:32:45.681Z,53.78
2022-09-15T14:35:48.292Z,53.60
2022-09-15T14:39:21.436Z,53.57
2022-09-15T14:42:30.418Z,52.57
2022-09-15T14:46:02.587Z,53.08
2022-09-15T14:49:09.715Z,53.03
2022-09-15T14:52:25.138Z,54.03
2022-09-15T14:55:29.060Z,54.30
2022-09-15T14:58:34.747Z,54.70
2022-09-15T15:01:38.711Z,53.52
2022-09-15T15:04:42.380Z,52.86
2022-09-15T15:07:45.030Z,52.54
2022-09-15T15:10:47.620Z,52.59
2022-09-15T15:13:52.566Z,52.39
2022-09-15T15:16:59.153Z,51.86
2022-09-15T15:20:03.519Z,52.39
2022-09-15T15:23:12.976Z,52.61
2022-09-15T15:26:25.589Z,52.73
2022-09-15T15:29:43.760Z,53.79
2022-09-15T15:32:46.453Z,53.82
2022-09-15T15:35:49.636Z,54.23
2022-09-15T15:38:53.148Z,54.43
2022-09-15T15:42:01.284Z,54.61
2022-09-15T15:45:06.209Z,55.33
2022-09-15T15:48:09.557Z,55.61
2022-09-15T15:51:12.516Z,55.79
2022-09-15T15:54:15.171Z,55.99
2022-09-15T15:57:24.797Z,56.28
2022-09-15T16:00:30.646Z,56.56
2022-09-15T16:03:33.344Z,56.30
2022-09-15T16:06:35.949Z,56.96
2022-09-15T16:09:38.884Z,56.47
2022-09-15T16:12:41.503Z,56.67
2022-09-15T16:15:45.555Z,56.44
2022-09-15T16:18:48.194Z,56.54
2022-09-15T16:21:50.785Z,55.77
2022-09-15T16:24:55.080Z,55.88
2022-09-15T16:27:57.679Z,55.56
2022-09-15T16:31:01.682Z,55.41
2022-09-15T16:34:04.435Z,54.90
2022-09-15T16:37:07.771Z,55.10
2022-09-15T16:40:10.515Z,55.12
2022-09-15T16:43:14.526Z,54.80
2022-09-15T16:46:18.703Z,54.78
2022-09-15T16:49:21.300Z,55.18
2022-09-15T16:52:23.932Z,55.83
2022-09-15T16:55:36.851Z,56.35
2022-09-15T16:58:39.661Z,56.51
2022-09-15T17:01:43.599Z,57.03
2022-09-15T17:04:46.228Z,56.88
2022-09-15T17:07:48.847Z,56.78
2022-09-15T17:10:52.765Z,56.97
2022-09-15T17:13:55.343Z,56.71
2022-09-15T17:16:59.461Z,56.70
2022-09-15T17:20:02.289Z,56.25
2022-09-15T17:23:06.546Z,56.70
2022-09-15T17:26:11.711Z,56.96
2022-09-15T17:29:14.423Z,57.31
2022-09-15T17:32:18.421Z,57.79
2022-09-15T17:35:22.877Z,57.47
2022-09-15T17:38:25.574Z,57.50
2022-09-15T17:41:28.071Z,57.07
2022-09-15T17:44:33.217Z,56.65
2022-09-15T17:47:42.132Z,56.62
2022-09-15T17:50:45.357Z,56.54
2022-09-15T17:53:48.108Z,56.61
2022-09-15T17:56:50.741Z,56.46
2022-09-15T17:59:53.365Z,56.92
2022-09-15T18:02:57.944Z,57.10
2022-09-15T18:06:00.891Z,57.07
2022-09-15T18:09:03.536Z,57.33
2022-09-15T18:12:06.233Z,57.38
2022-09-15T18:15:12.843Z,57.62
2022-09-15T18:18:17.652Z,58.03
2022-09-15T18:21:24.477Z,58.19
2022-09-15T18:24:28.313Z,58.03
2022-09-15T18:27:30.885Z,58.17
2022-09-15T18:30:36.343Z,58.16
2022-09-15T18:33:40.292Z,58.41
2022-09-15T18:36:42.923Z,58.49
2022-09-15T18:39:45.695Z,58.13
2022-09-15T18:42:48.396Z,58.58
2022-09-15T18:45:51.323Z,58.66
2022-09-15T18:48:55.260Z,58.52
2022-09-15T18:51:59.169Z,58.34
2022-09-15T18:55:02.259Z,58.86
2022-09-15T18:58:04.940Z,58.32
2022-09-15T19:01:07.801Z,58.67
2022-09-15T19:04:11.997Z,58.70
2022-09-15T19:07:14.580Z,58.52
2022-09-15T19:10:17.297Z,58.36
2022-09-15T19:13:19.860Z,58.38
2022-09-15T19:16:34.687Z,58.78
2022-09-15T19:19:47.295Z,59.00
2022-09-15T19:22:51.531Z,58.50
2022-09-15T19:25:54.153Z,58.25
2022-09-15T19:28:56.764Z,57.30
2022-09-15T19:31:59.385Z,56.72
2022-09-15T19:35:03.377Z,56.29
2022-09-15T19:38:05.935Z,56.19
2022-09-15T19:41:09.328Z,55.99
2022-09-15T19:44:11.967Z,56.69
2022-09-15T19:47:14.588Z,56.92
2022-09-15T19:50:18.742Z,57.02
2022-09-15T19:53:21.363Z,56.73
2022-09-15T19:56:26.125Z,56.76
2022-09-15T19:59:31.326Z,56.64
2022-09-15T20:02:34.647Z,56.62
2022-09-15T20:05:38.889Z,56.78
2022-09-15T20:08:44.536Z,56.14
2022-09-15T20:11:47.190Z,55.93
2022-09-15T20:14:49.887Z,55.55
2022-09-15T20:17:52.493Z,55.51
2022-09-15T20:20:56.481Z,55.52
2022-09-15T20:23:59.274Z,55.36
2022-09-15T20:27:01.938Z,55.38
2022-09-15T20:30:05.595Z,55.40
2022-09-15T20:33:08.239Z,54.78
2022-09-15T20:36:13.426Z,54.56
2022-09-15T20:39:18.688Z,54.17
2022-09-15T20:42:21.287Z,54.34
2022-09-15T20:45:24.225Z,54.48
2022-09-15T20:48:27.137Z,54.40
2022-09-15T20:51:32.006Z,54.10
2022-09-15T20:54:34.597Z,54.44
2022-09-15T20:57:37.195Z,54.50
2022-09-15T21:00:39.776Z,54.31
2022-09-15T21:03:43.305Z,55.55
2022-09-15T21:06:47.513Z,56.25
2022-09-15T21:09:50.128Z,56.46
2022-09-15T21:12:52.736Z,57.11
2022-09-15T21:15:56.976Z,57.79
2022-09-15T21:18:59.630Z,58.10
2022-09-15T21:22:03.647Z,58.52
2022-09-15T21:25:07.244Z,59.10
2022-09-15T21:28:09.861Z,59.54
2022-09-15T21:31:13.322Z,59.93
2022-09-15T21:34:16.916Z,60.34
2022-09-15T21:37:20.927Z,60.49
2022-09-15T21:40:23.623Z,60.39
2022-09-15T21:43:30.140Z,61.41
2022-09-15T21:46:32.779Z,62.16
2022-09-15T21:49:35.406Z,62.10
2022-09-15T21:52:39.479Z,62.72
2022-09-15T21:55:42.772Z,62.38
2022-09-15T21:58:45.586Z,63.13
2022-09-15T22:01:48.514Z,63.34
2022-09-15T22:04:52.435Z,63.31
2022-09-15T22:07:56.577Z,63.78
2022-09-15T22:10:59.729Z,64.20
2022-09-15T22:14:02.913Z,64.17
2022-09-15T22:17:05.701Z,64.30
2022-09-15T22:20:09.230Z,64.73
2022-09-15T22:23:13.229Z,64.29
2022-09-15T22:26:17.225Z,64.47
2022-09-15T22:29:19.919Z,64.79
2022-09-15T22:32:22.687Z,64.67
2022-09-15T22:35:25.726Z,64.44
2022-09-15T22:38:30.289Z,64.18
2022-09-15T22:41:33.069Z,63.59
2022-09-15T22:44:35.736Z,62.45
2022-09-15T22:47:38.344Z,61.79
2022-09-15T22:50:41.073Z,61.50
2022-09-15T22:53:45.161Z,60.91
2022-09-15T22:56:47.965Z,60.29
2022-09-15T22:59:50.615Z,60.07
2022-09-15T23:02:53.274Z,59.60
2022-09-15T23:05:58.259Z,59.19
2022-09-15T23:09:03.418Z,59.16
2022-09-15T23:12:07.858Z,58.42
2022-09-15T23:15:11.371Z,58.28
2022-09-15T23:18:13.984Z,58.30
2022-09-15T23:21:16.628Z,58.15
2022-09-15T23:24:20.753Z,57.87
2022-09-15T23:27:23.401Z,57.51
2022-09-15T23:30:26.003Z,57.68
2022-09-15T23:33:29.979Z,57.05
2022-09-15T23:36:32.595Z,57.18
2022-09-15T23:39:36.598Z,57.42
2022-09-15T23:42:39.240Z,57.55
2022-09-15T23:45:42.336Z,57.96
2022-09-15T23:48:45.218Z,58.19
2022-09-15T23:51:47.825Z,59.21
2022-09-15T23:54:51.848Z,58.54
2022-09-15T23:57:55.591Z,59.24
